sensor_id;sensor_type;location;lat;lon;timestamp;pressure;altitude;pressure_sealevel;temperature;humidity
20696;BME280;10507;52.754;13.040;2023-04-02T00:01:21;99946.31;;;3.16;97.28
20696;BME280;10507;52.754;13.040;2023-04-02T00:04:16;99919.31;;;3.09;98.12
20696;BME280;10507;52.754;13.040;2023-04-02T00:06:56;99941.28;;;3.08;97.58
20696;BME280;10507;52.754;13.040;2023-04-02T00:09:43;99914.97;;;3.07;97.71
20696;BME280;10507;52.754;13.040;2023-04-02T00:12:14;99938.63;;;3.10;98.11
20696;BME280;10507;52.754;13.040;2023-04-02T00:14:49;99945.69;;;3.09;98.24
20696;BME280;10507;52.754;13.040;2023-04-02T00:17:22;99916.78;;;3.05;97.65
20696;BME280;10507;52.754;13.040;2023-04-02T00:19:54;99955.25;;;3.12;97.54
20696;BME280;10507;52.754;13.040;2023-04-02T00:22:26;99914.91;;;3.08;97.44
20696;BME280;10507;52.754;13.040;2023-04-02T00:24:55;99954.47;;;3.08;98.44
20696;BME280;10507;52.754;13.040;2023-04-02T00:27:23;99969.34;;;3.11;97.70
20696;BME280;10507;52.754;13.040;2023-04-02T00:29:53;99908.78;;;3.08;97.21
20696;BME280;10507;52.754;13.040;2023-04-02T00:32:25;99902.56;;;3.10;97.16
20696;BME280;10507;52.754;13.040;2023-04-02T00:34:54;99860.50;;;3.06;96.72
20696;BME280;10507;52.754;13.040;2023-04-02T00:37:24;99908.53;;;3.16;96.30
20696;BME280;10507;52.754;13.040;2023-04-02T00:39:57;99891.00;;;3.15;96.67
20696;BME280;10507;52.754;13.040;2023-04-02T00:42:29;99844.50;;;3.12;96.37
20696;BME280;10507;52.754;13.040;2023-04-02T00:44:58;99884.88;;;3.14;96.63
20696;BME280;10507;52.754;13.040;2023-04-02T00:47:31;99804.19;;;3.07;95.92
20696;BME280;10507;52.754;13.040;2023-04-02T00:50:03;99828.75;;;3.09;95.78
20696;BME280;10507;52.754;13.040;2023-04-02T00:52:33;99822.63;;;3.08;95.71
20696;BME280;10507;52.754;13.040;2023-04-02T00:55:06;99849.84;;;3.09;96.57
20696;BME280;10507;52.754;13.040;2023-04-02T00:57:36;99828.88;;;3.06;95.64
20696;BME280;10507;52.754;13.040;2023-04-02T01:00:18;99832.28;;;3.09;95.65
20696;BME280;10507;52.754;13.040;2023-04-02T01:05:59;99803.28;;;3.09;95.16
20696;BME280;10507;52.754;13.040;2023-04-02T01:08:47;99806.69;;;3.11;95.27
20696;BME280;10507;52.754;13.040;2023-04-02T01:11:29;99822.59;;;3.10;95.23
20696;BME280;10507;52.754;13.040;2023-04-02T01:14:02;99859.44;;;3.11;95.67
20696;BME280;10507;52.754;13.040;2023-04-02T01:16:42;99833.16;;;3.08;95.71
20696;BME280;10507;52.754;13.040;2023-04-02T01:19:38;99785.00;;;3.03;94.79
20696;BME280;10507;52.754;13.040;2023-04-02T01:22:16;99781.41;;;3.06;94.53
20696;BME280;10507;52.754;13.040;2023-04-02T01:24:49;99762.97;;;3.04;94.39
20696;BME280;10507;52.754;13.040;2023-04-02T01:27:21;99728.00;;;2.99;94.47
20696;BME280;10507;52.754;13.040;2023-04-02T01:29:53;99748.97;;;3.02;93.98
20696;BME280;10507;52.754;13.040;2023-04-02T01:32:25;99723.53;;;3.01;94.11
20696;BME280;10507;52.754;13.040;2023-04-02T01:34:55;99714.66;;;3.04;93.53
20696;BME280;10507;52.754;13.040;2023-04-02T01:37:33;99686.72;;;2.98;93.29
20696;BME280;10507;52.754;13.040;2023-04-02T01:40:14;99686.66;;;3.00;93.28
20696;BME280;10507;52.754;13.040;2023-04-02T01:42:51;99690.22;;;2.99;92.29
20696;BME280;10507;52.754;13.040;2023-04-02T01:45:25;99700.53;;;3.05;92.46
20696;BME280;10507;52.754;13.040;2023-04-02T01:47:54;99711.00;;;3.08;92.43
20696;BME280;10507;52.754;13.040;2023-04-02T01:50:26;99770.53;;;3.15;93.03
20696;BME280;10507;52.754;13.040;2023-04-02T01:52:59;99724.19;;;3.08;92.49
20696;BME280;10507;52.754;13.040;2023-04-02T01:55:32;99711.97;;;3.05;92.64
20696;BME280;10507;52.754;13.040;2023-04-02T01:58:01;99743.66;;;3.04;93.13
20696;BME280;10507;52.754;13.040;2023-04-02T02:00:33;99793.72;;;3.05;93.82
20696;BME280;10507;52.754;13.040;2023-04-02T02:03:04;99792.06;;;3.03;93.54
20696;BME280;10507;52.754;13.040;2023-04-02T02:05:34;99836.63;;;3.10;93.52
20696;BME280;10507;52.754;13.040;2023-04-02T02:08:03;99842.00;;;3.07;93.99
20696;BME280;10507;52.754;13.040;2023-04-02T02:10:36;99886.78;;;3.09;94.40
20696;BME280;10507;52.754;13.040;2023-04-02T02:13:05;99883.25;;;3.10;94.55
20696;BME280;10507;52.754;13.040;2023-04-02T02:15:35;99873.69;;;3.06;94.41
20696;BME280;10507;52.754;13.040;2023-04-02T02:18:04;99904.34;;;3.10;94.79
20696;BME280;10507;52.754;13.040;2023-04-02T02:20:33;99921.97;;;3.08;95.38
20696;BME280;10507;52.754;13.040;2023-04-02T02:23:02;99955.06;;;3.18;94.54
20696;BME280;10507;52.754;13.040;2023-04-02T02:25:33;99887.53;;;3.12;94.58
20696;BME280;10507;52.754;13.040;2023-04-02T02:28:05;99876.34;;;3.06;94.69
20696;BME280;10507;52.754;13.040;2023-04-02T02:30:38;99914.16;;;3.05;95.01
20696;BME280;10507;52.754;13.040;2023-04-02T02:33:14;99912.44;;;3.04;94.64
20696;BME280;10507;52.754;13.040;2023-04-02T02:35:48;99886.09;;;3.02;94.21
20696;BME280;10507;52.754;13.040;2023-04-02T02:38:38;99913.41;;;3.01;94.90
20696;BME280;10507;52.754;13.040;2023-04-02T02:41:13;99927.44;;;3.02;95.26
20696;BME280;10507;52.754;13.040;2023-04-02T02:43:47;99912.53;;;3.01;94.40
20696;BME280;10507;52.754;13.040;2023-04-02T02:46:20;99866.75;;;3.03;93.40
20696;BME280;10507;52.754;13.040;2023-04-02T02:48:51;99828.16;;;3.01;93.44
20696;BME280;10507;52.754;13.040;2023-04-02T02:51:25;99901.88;;;3.04;94.09
20696;BME280;10507;52.754;13.040;2023-04-02T02:53:57;99916.66;;;3.09;94.15
20696;BME280;10507;52.754;13.040;2023-04-02T02:56:29;99854.41;;;3.04;93.09
20696;BME280;10507;52.754;13.040;2023-04-02T02:58:58;99870.13;;;3.07;93.87
20696;BME280;10507;52.754;13.040;2023-04-02T03:01:30;99846.63;;;3.01;93.44
20696;BME280;10507;52.754;13.040;2023-04-02T03:03:59;99864.25;;;2.99;93.78
20696;BME280;10507;52.754;13.040;2023-04-02T03:06:27;99937.03;;;3.04;94.41
20696;BME280;10507;52.754;13.040;2023-04-02T03:09:02;99895.91;;;2.99;94.36
20696;BME280;10507;52.754;13.040;2023-04-02T03:11:35;99909.16;;;2.96;94.60
20696;BME280;10507;52.754;13.040;2023-04-02T03:14:14;99959.06;;;3.02;94.21
20696;BME280;10507;52.754;13.040;2023-04-02T03:16:49;99948.63;;;2.99;94.36
20696;BME280;10507;52.754;13.040;2023-04-02T03:19:26;99991.56;;;3.02;94.47
20696;BME280;10507;52.754;13.040;2023-04-02T03:21:58;99966.81;;;3.08;93.96
20696;BME280;10507;52.754;13.040;2023-04-02T03:24:33;99942.41;;;3.01;94.38
20696;BME280;10507;52.754;13.040;2023-04-02T03:27:09;99928.34;;;3.01;93.97
20696;BME280;10507;52.754;13.040;2023-04-02T03:29:40;99915.25;;;2.98;93.90
20696;BME280;10507;52.754;13.040;2023-04-02T03:32:15;99909.00;;;3.00;93.49
20696;BME280;10507;52.754;13.040;2023-04-02T03:34:46;99956.41;;;3.03;94.16
20696;BME280;10507;52.754;13.040;2023-04-02T03:37:20;99966.03;;;3.04;94.44
20696;BME280;10507;52.754;13.040;2023-04-02T03:39:51;99972.97;;;3.07;93.84
20696;BME280;10507;52.754;13.040;2023-04-02T03:42:23;99989.69;;;3.07;94.11
20696;BME280;10507;52.754;13.040;2023-04-02T03:44:55;99980.72;;;3.13;93.66
20696;BME280;10507;52.754;13.040;2023-04-02T03:47:30;99971.09;;;3.12;94.01
20696;BME280;10507;52.754;13.040;2023-04-02T03:50:05;99982.38;;;3.16;93.67
20696;BME280;10507;52.754;13.040;2023-04-02T03:52:35;99967.56;;;3.11;93.56
20696;BME280;10507;52.754;13.040;2023-04-02T03:55:10;100002.09;;;3.04;94.64
20696;BME280;10507;52.754;13.040;2023-04-02T03:57:46;100049.41;;;3.08;94.64
20696;BME280;10507;52.754;13.040;2023-04-02T04:00:21;100011.72;;;3.05;94.59
20696;BME280;10507;52.754;13.040;2023-04-02T04:02:56;100013.34;;;3.09;94.54
20696;BME280;10507;52.754;13.040;2023-04-02T04:05:28;99991.44;;;3.07;94.17
20696;BME280;10507;52.754;13.040;2023-04-02T04:08:00;99984.56;;;3.03;93.84
20696;BME280;10507;52.754;13.040;2023-04-02T04:10:30;99995.66;;;3.14;93.20
20696;BME280;10507;52.754;13.040;2023-04-02T04:13:03;99977.25;;;3.11;93.79
20696;BME280;10507;52.754;13.040;2023-04-02T04:15:35;99984.34;;;3.09;93.87
20696;BME280;10507;52.754;13.040;2023-04-02T04:18:14;99989.59;;;3.10;93.93
20696;BME280;10507;52.754;13.040;2023-04-02T04:20:49;99986.97;;;3.09;93.88
20696;BME280;10507;52.754;13.040;2023-04-02T04:23:26;99980.06;;;3.05;94.40
20696;BME280;10507;52.754;13.040;2023-04-02T04:25:58;100055.56;;;3.09;94.24
20696;BME280;10507;52.754;13.040;2023-04-02T04:28:31;100052.91;;;3.09;94.17
20696;BME280;10507;52.754;13.040;2023-04-02T04:31:13;100053.84;;;3.08;94.34
20696;BME280;10507;52.754;13.040;2023-04-02T04:33:51;100097.69;;;3.12;94.90
20696;BME280;10507;52.754;13.040;2023-04-02T04:36:23;100084.63;;;3.07;94.50
20696;BME280;10507;52.754;13.040;2023-04-02T04:38:56;100115.31;;;3.10;94.99
20696;BME280;10507;52.754;13.040;2023-04-02T04:41:28;100170.50;;;3.16;95.28
20696;BME280;10507;52.754;13.040;2023-04-02T04:44:01;100173.16;;;3.16;94.99
20696;BME280;10507;52.754;13.040;2023-04-02T04:46:34;100181.03;;;3.18;95.10
20696;BME280;10507;52.754;13.040;2023-04-02T04:49:08;100170.59;;;3.13;95.10
20696;BME280;10507;52.754;13.040;2023-04-02T04:51:41;100163.56;;;3.13;95.43
20696;BME280;10507;52.754;13.040;2023-04-02T04:54:12;100185.53;;;3.14;95.47
20696;BME280;10507;52.754;13.040;2023-04-02T04:56:44;100213.53;;;3.18;95.44
20696;BME280;10507;52.754;13.040;2023-04-02T04:59:18;100210.84;;;3.21;95.82
20696;BME280;10507;52.754;13.040;2023-04-02T05:01:51;100192.38;;;3.21;94.69
20696;BME280;10507;52.754;13.040;2023-04-02T05:04:28;100142.28;;;3.20;94.65
20696;BME280;10507;52.754;13.040;2023-04-02T05:07:02;100142.13;;;3.26;94.36
20696;BME280;10507;52.754;13.040;2023-04-02T05:09:35;100108.72;;;3.25;93.82
20696;BME280;10507;52.754;13.040;2023-04-02T05:12:09;100103.44;;;3.25;94.05
20696;BME280;10507;52.754;13.040;2023-04-02T05:14:48;100119.84;;;3.36;92.94
20696;BME280;10507;52.754;13.040;2023-04-02T05:17:22;100104.06;;;3.35;93.12
20696;BME280;10507;52.754;13.040;2023-04-02T05:19:58;100034.88;;;3.25;93.17
20696;BME280;10507;52.754;13.040;2023-04-02T05:22:33;100091.97;;;3.27;93.63
20696;BME280;10507;52.754;13.040;2023-04-02T05:25:14;100114.81;;;3.27;93.90
20696;BME280;10507;52.754;13.040;2023-04-02T05:27:46;100113.16;;;3.24;93.01
20696;BME280;10507;52.754;13.040;2023-04-02T05:30:41;100139.47;;;3.27;93.35
20696;BME280;10507;52.754;13.040;2023-04-02T05:33:20;100134.91;;;3.32;93.09
20696;BME280;10507;52.754;13.040;2023-04-02T05:35:55;100006.72;;;3.25;91.74
20696;BME280;10507;52.754;13.040;2023-04-02T05:38:27;99992.72;;;3.23;91.58
20696;BME280;10507;52.754;13.040;2023-04-02T05:40:59;100011.09;;;3.26;91.57
20696;BME280;10507;52.754;13.040;2023-04-02T05:43:31;100046.09;;;3.31;91.63
20696;BME280;10507;52.754;13.040;2023-04-02T05:46:04;100054.78;;;3.35;92.17
20696;BME280;10507;52.754;13.040;2023-04-02T05:48:37;100074.91;;;3.39;91.99
20696;BME280;10507;52.754;13.040;2023-04-02T05:51:14;100032.88;;;3.33;91.75
20696;BME280;10507;52.754;13.040;2023-04-02T05:53:46;100106.56;;;3.39;92.17
20696;BME280;10507;52.754;13.040;2023-04-02T05:56:18;100095.16;;;3.39;92.67
20696;BME280;10507;52.754;13.040;2023-04-02T05:58:50;100118.84;;;3.40;91.85
20696;BME280;10507;52.754;13.040;2023-04-02T06:01:28;100086.31;;;3.40;92.00
20696;BME280;10507;52.754;13.040;2023-04-02T06:04:02;100124.06;;;3.43;91.88
20696;BME280;10507;52.754;13.040;2023-04-02T06:06:50;100123.84;;;3.49;91.84
20696;BME280;10507;52.754;13.040;2023-04-02T06:09:27;100137.94;;;3.50;91.59
20696;BME280;10507;52.754;13.040;2023-04-02T06:12:07;100169.41;;;3.56;92.31
20696;BME280;10507;52.754;13.040;2023-04-02T06:14:38;100130.81;;;3.52;91.87
20696;BME280;10507;52.754;13.040;2023-04-02T06:17:06;100167.66;;;3.57;92.34
20696;BME280;10507;52.754;13.040;2023-04-02T06:19:36;100165.00;;;3.57;92.26
20696;BME280;10507;52.754;13.040;2023-04-02T06:22:18;100202.59;;;3.65;92.62
20696;BME280;10507;52.754;13.040;2023-04-02T06:24:52;100176.81;;;3.74;90.81
20696;BME280;10507;52.754;13.040;2023-04-02T06:27:23;100086.16;;;3.74;90.75
20696;BME280;10507;52.754;13.040;2023-04-02T06:29:57;100130.06;;;3.77;90.89
20696;BME280;10507;52.754;13.040;2023-04-02T06:32:26;100117.75;;;3.77;90.79
20696;BME280;10507;52.754;13.040;2023-04-02T06:34:53;100092.31;;;3.74;91.09
20696;BME280;10507;52.754;13.040;2023-04-02T06:37:26;100127.44;;;3.77;90.94
20696;BME280;10507;52.754;13.040;2023-04-02T06:39:57;100124.00;;;3.74;90.69
20696;BME280;10507;52.754;13.040;2023-04-02T06:42:27;100174.88;;;3.80;91.05
20696;BME280;10507;52.754;13.040;2023-04-02T06:44:57;100243.22;;;3.90;91.70
20696;BME280;10507;52.754;13.040;2023-04-02T06:47:29;100246.72;;;3.91;91.79
20696;BME280;10507;52.754;13.040;2023-04-02T06:50:03;100248.50;;;3.90;91.85
20696;BME280;10507;52.754;13.040;2023-04-02T06:52:44;100217.81;;;3.86;91.71
20696;BME280;10507;52.754;13.040;2023-04-02T06:56:03;100300.00;;;4.05;91.90
20696;BME280;10507;52.754;13.040;2023-04-02T06:59:27;100267.59;;;4.00;91.71
20696;BME280;10507;52.754;13.040;2023-04-02T07:02:33;100241.34;;;3.94;91.42
20696;BME280;10507;52.754;13.040;2023-04-02T07:05:44;100269.31;;;4.01;91.40
20696;BME280;10507;52.754;13.040;2023-04-02T07:08:27;100209.38;;;4.03;90.57
20696;BME280;10507;52.754;13.040;2023-04-02T07:10:55;100162.13;;;3.94;90.72
20696;BME280;10507;52.754;13.040;2023-04-02T07:13:24;100098.03;;;3.89;89.53
20696;BME280;10507;52.754;13.040;2023-04-02T07:15:53;100206.84;;;4.00;90.54
20696;BME280;10507;52.754;13.040;2023-04-02T07:18:23;100108.41;;;3.95;89.42
20696;BME280;10507;52.754;13.040;2023-04-02T07:20:52;100052.31;;;3.87;89.50
20696;BME280;10507;52.754;13.040;2023-04-02T07:23:20;100089.91;;;3.95;89.21
20696;BME280;10507;52.754;13.040;2023-04-02T07:25:52;100032.00;;;3.89;88.50
20696;BME280;10507;52.754;13.040;2023-04-02T07:28:21;100057.09;;;4.02;88.66
20696;BME280;10507;52.754;13.040;2023-04-02T07:30:49;100013.91;;;4.03;87.66
20696;BME280;10507;52.754;13.040;2023-04-02T07:33:20;99937.59;;;3.95;87.32
20696;BME280;10507;52.754;13.040;2023-04-02T07:35:49;100008.44;;;4.09;87.67
20696;BME280;10507;52.754;13.040;2023-04-02T07:38:17;100039.81;;;4.19;87.43
20696;BME280;10507;52.754;13.040;2023-04-02T07:40:45;99997.53;;;4.19;87.15
20696;BME280;10507;52.754;13.040;2023-04-02T07:43:14;99946.53;;;4.16;86.84
20696;BME280;10507;52.754;13.040;2023-04-02T07:45:42;99950.19;;;4.12;86.64
20696;BME280;10507;52.754;13.040;2023-04-02T07:48:11;99922.13;;;4.10;86.48
20696;BME280;10507;52.754;13.040;2023-04-02T07:50:40;100030.03;;;4.22;86.41
20696;BME280;10507;52.754;13.040;2023-04-02T07:53:17;100008.81;;;4.24;85.98
20696;BME280;10507;52.754;13.040;2023-04-02T07:55:52;99988.28;;;4.32;86.08
20696;BME280;10507;52.754;13.040;2023-04-02T07:58:21;100003.44;;;4.27;86.75
20696;BME280;10507;52.754;13.040;2023-04-02T08:00:49;100090.53;;;4.30;87.09
20696;BME280;10507;52.754;13.040;2023-04-02T08:03:17;99982.56;;;4.19;86.51
20696;BME280;10507;52.754;13.040;2023-04-02T08:05:49;99984.19;;;4.23;86.28
20696;BME280;10507;52.754;13.040;2023-04-02T08:08:18;99992.84;;;4.28;86.48
20696;BME280;10507;52.754;13.040;2023-04-02T08:10:46;99983.31;;;4.23;85.95
20696;BME280;10507;52.754;13.040;2023-04-02T08:13:14;99918.38;;;4.17;85.38
20696;BME280;10507;52.754;13.040;2023-04-02T08:15:44;100010.56;;;4.25;85.78
20696;BME280;10507;52.754;13.040;2023-04-02T08:18:12;100026.28;;;4.28;85.87
20696;BME280;10507;52.754;13.040;2023-04-02T08:20:40;100032.19;;;4.36;85.65
20696;BME280;10507;52.754;13.040;2023-04-02T08:23:12;100040.50;;;4.50;85.62
20696;BME280;10507;52.754;13.040;2023-04-02T08:25:42;100085.06;;;4.61;85.32
20696;BME280;10507;52.754;13.040;2023-04-02T08:28:10;100125.13;;;4.75;85.49
20696;BME280;10507;52.754;13.040;2023-04-02T08:30:38;100113.25;;;4.87;84.41
20696;BME280;10507;52.754;13.040;2023-04-02T08:33:08;100021.41;;;4.91;83.37
20696;BME280;10507;52.754;13.040;2023-04-02T08:35:36;100033.97;;;5.09;82.59
20696;BME280;10507;52.754;13.040;2023-04-02T08:38:05;99898.25;;;5.29;80.47
20696;BME280;10507;52.754;13.040;2023-04-02T08:40:34;99892.31;;;5.45;79.83
20696;BME280;10507;52.754;13.040;2023-04-02T08:43:14;99663.28;;;5.15;79.62
20696;BME280;10507;52.754;13.040;2023-04-02T08:45:55;99718.94;;;5.14;79.58
20696;BME280;10507;52.754;13.040;2023-04-02T08:48:30;99714.88;;;5.46;77.89
20696;BME280;10507;52.754;13.040;2023-04-02T08:50:59;99956.66;;;5.89;78.21
20696;BME280;10507;52.754;13.040;2023-04-02T08:53:31;99828.94;;;6.03;77.73
20696;BME280;10507;52.754;13.040;2023-04-02T08:56:05;99880.53;;;6.15;77.65
20696;BME280;10507;52.754;13.040;2023-04-02T08:58:39;99906.41;;;6.49;75.73
20696;BME280;10507;52.754;13.040;2023-04-02T09:01:18;99801.97;;;6.71;74.55
20696;BME280;10507;52.754;13.040;2023-04-02T09:03:53;100084.81;;;6.94;76.67
20696;BME280;10507;52.754;13.040;2023-04-02T09:06:23;99841.09;;;6.65;76.17
20696;BME280;10507;52.754;13.040;2023-04-02T09:08:51;99562.75;;;6.28;75.46
20696;BME280;10507;52.754;13.040;2023-04-02T09:11:23;99577.41;;;6.17;75.12
20696;BME280;10507;52.754;13.040;2023-04-02T09:13:54;99720.16;;;6.25;76.61
20696;BME280;10507;52.754;13.040;2023-04-02T09:16:33;99609.84;;;6.22;74.50
20696;BME280;10507;52.754;13.040;2023-04-02T09:19:14;99595.91;;;6.19;74.81
20696;BME280;10507;52.754;13.040;2023-04-02T09:21:45;99573.81;;;6.01;76.33
20696;BME280;10507;52.754;13.040;2023-04-02T09:24:15;99572.94;;;5.81;76.42
20696;BME280;10507;52.754;13.040;2023-04-02T09:26:42;99599.69;;;5.75;75.88
20696;BME280;10507;52.754;13.040;2023-04-02T09:29:26;99512.56;;;5.52;75.94
20696;BME280;10507;52.754;13.040;2023-04-02T09:32:00;99757.31;;;5.65;77.68
20696;BME280;10507;52.754;13.040;2023-04-02T09:34:34;99850.84;;;5.86;77.53
20696;BME280;10507;52.754;13.040;2023-04-02T09:37:07;99787.22;;;5.88;77.09
20696;BME280;10507;52.754;13.040;2023-04-02T09:39:35;99681.00;;;5.73;77.43
20696;BME280;10507;52.754;13.040;2023-04-02T09:42:07;99645.44;;;5.79;75.92
20696;BME280;10507;52.754;13.040;2023-04-02T09:45:11;99637.28;;;5.83;75.19
20696;BME280;10507;52.754;13.040;2023-04-02T09:47:39;99840.06;;;6.11;76.00
20696;BME280;10507;52.754;13.040;2023-04-02T09:50:27;99891.69;;;6.42;76.20
20696;BME280;10507;52.754;13.040;2023-04-02T09:52:55;100002.03;;;6.65;76.54
20696;BME280;10507;52.754;13.040;2023-04-02T09:55:24;100137.72;;;6.97;76.87
20696;BME280;10507;52.754;13.040;2023-04-02T09:58:13;99835.41;;;6.92;74.76
20696;BME280;10507;52.754;13.040;2023-04-02T10:00:49;99692.44;;;6.69;73.73
20696;BME280;10507;52.754;13.040;2023-04-02T10:03:22;99772.19;;;6.83;73.24
20696;BME280;10507;52.754;13.040;2023-04-02T10:06:06;99817.06;;;6.87;74.20
20696;BME280;10507;52.754;13.040;2023-04-02T10:08:36;100129.97;;;7.33;75.32
20696;BME280;10507;52.754;13.040;2023-04-02T10:11:07;99902.84;;;7.43;73.12
20696;BME280;10507;52.754;13.040;2023-04-02T10:13:45;99870.06;;;7.62;71.91
20696;BME280;10507;52.754;13.040;2023-04-02T10:16:19;99843.19;;;7.68;71.70
20696;BME280;10507;52.754;13.040;2023-04-02T10:18:55;100066.75;;;7.97;72.27
20696;BME280;10507;52.754;13.040;2023-04-02T10:21:28;99788.16;;;7.70;71.60
20696;BME280;10507;52.754;13.040;2023-04-02T10:23:57;99773.63;;;7.77;70.43
20696;BME280;10507;52.754;13.040;2023-04-02T10:26:38;100208.94;;;8.26;72.97
20696;BME280;10507;52.754;13.040;2023-04-02T10:29:25;100004.22;;;8.07;73.25
20696;BME280;10507;52.754;13.040;2023-04-02T10:32:01;99951.03;;;7.72;73.89
20696;BME280;10507;52.754;13.040;2023-04-02T10:34:38;100111.16;;;7.95;73.98
20696;BME280;10507;52.754;13.040;2023-04-02T10:40:28;99843.97;;;7.70;72.96
20696;BME280;10507;52.754;13.040;2023-04-02T10:43:24;99862.41;;;7.90;72.54
20696;BME280;10507;52.754;13.040;2023-04-02T10:45:59;99702.09;;;7.39;72.86
20696;BME280;10507;52.754;13.040;2023-04-02T10:48:34;99719.94;;;7.20;73.37
20696;BME280;10507;52.754;13.040;2023-04-02T10:51:11;99867.13;;;7.32;73.58
20696;BME280;10507;52.754;13.040;2023-04-02T10:53:47;99815.84;;;7.31;73.72
20696;BME280;10507;52.754;13.040;2023-04-02T10:56:19;99731.00;;;7.28;71.82
20696;BME280;10507;52.754;13.040;2023-04-02T10:58:52;99810.53;;;7.31;72.94
20696;BME280;10507;52.754;13.040;2023-04-02T11:01:25;99687.38;;;7.16;72.12
20696;BME280;10507;52.754;13.040;2023-04-02T11:03:58;99774.88;;;7.35;71.41
20696;BME280;10507;52.754;13.040;2023-04-02T11:06:30;100045.59;;;7.76;73.38
20696;BME280;10507;52.754;13.040;2023-04-02T11:09:04;99867.78;;;7.54;72.15
20696;BME280;10507;52.754;13.040;2023-04-02T11:11:35;99774.66;;;7.40;72.14
20696;BME280;10507;52.754;13.040;2023-04-02T11:14:11;99626.25;;;7.18;71.83
20696;BME280;10507;52.754;13.040;2023-04-02T11:16:40;99687.84;;;7.07;72.24
20696;BME280;10507;52.754;13.040;2023-04-02T11:19:23;99668.41;;;7.06;71.62
20696;BME280;10507;52.754;13.040;2023-04-02T11:21:52;99835.84;;;7.38;71.72
20696;BME280;10507;52.754;13.040;2023-04-02T11:24:35;100017.13;;;7.61;72.81
20696;BME280;10507;52.754;13.040;2023-04-02T11:27:07;99793.13;;;7.60;70.84
20696;BME280;10507;52.754;13.040;2023-04-02T11:29:43;100004.72;;;7.79;72.18
20696;BME280;10507;52.754;13.040;2023-04-02T11:32:27;99773.50;;;7.63;69.98
20696;BME280;10507;52.754;13.040;2023-04-02T11:35:23;99916.19;;;7.78;70.97
20696;BME280;10507;52.754;13.040;2023-04-02T11:37:53;99939.84;;;8.00;70.53
20696;BME280;10507;52.754;13.040;2023-04-02T11:40:46;100033.59;;;8.40;69.56
20696;BME280;10507;52.754;13.040;2023-04-02T11:43:47;99854.78;;;8.18;70.08
20696;BME280;10507;52.754;13.040;2023-04-02T11:46:37;99984.50;;;8.11;72.50
20696;BME280;10507;52.754;13.040;2023-04-02T11:49:39;99655.28;;;7.54;70.50
20696;BME280;10507;52.754;13.040;2023-04-02T11:52:34;99692.75;;;7.32;70.82
20696;BME280;10507;52.754;13.040;2023-04-02T11:55:29;99774.59;;;7.41;71.25
20696;BME280;10507;52.754;13.040;2023-04-02T11:58:34;100053.06;;;8.04;71.42
20696;BME280;10507;52.754;13.040;2023-04-02T12:01:51;99982.28;;;7.84;72.01
20696;BME280;10507;52.754;13.040;2023-04-02T12:05:06;99839.25;;;7.75;71.24
20696;BME280;10507;52.754;13.040;2023-04-02T12:08:17;99732.16;;;7.40;71.29
20696;BME280;10507;52.754;13.040;2023-04-02T12:11:13;99569.34;;;7.06;70.44
20696;BME280;10507;52.754;13.040;2023-04-02T12:14:42;99969.41;;;7.58;71.88
20696;BME280;10507;52.754;13.040;2023-04-02T12:17:36;100063.81;;;8.03;71.36
20696;BME280;10507;52.754;13.040;2023-04-02T12:20:29;99723.88;;;7.63;69.79
20696;BME280;10507;52.754;13.040;2023-04-02T12:23:26;99753.66;;;7.53;69.96
20696;BME280;10507;52.754;13.040;2023-04-02T12:26:27;99948.84;;;7.80;70.33
20696;BME280;10507;52.754;13.040;2023-04-02T12:29:23;99898.03;;;8.04;69.50
20696;BME280;10507;52.754;13.040;2023-04-02T12:32:19;100030.22;;;8.37;69.35
20696;BME280;10507;52.754;13.040;2023-04-02T12:35:26;99832.63;;;7.84;71.52
20696;BME280;10507;52.754;13.040;2023-04-02T12:38:21;99753.03;;;7.30;72.30
20696;BME280;10507;52.754;13.040;2023-04-02T12:41:20;99771.75;;;7.10;72.14
20696;BME280;10507;52.754;13.040;2023-04-02T12:44:14;99764.34;;;6.99;71.42
20696;BME280;10507;52.754;13.040;2023-04-02T12:47:09;99741.84;;;6.89;71.47
20696;BME280;10507;52.754;13.040;2023-04-02T12:50:04;99879.84;;;7.25;71.41
20696;BME280;10507;52.754;13.040;2023-04-02T12:52:57;100106.41;;;7.82;71.39
20696;BME280;10507;52.754;13.040;2023-04-02T12:55:51;100019.16;;;8.09;69.18
20696;BME280;10507;52.754;13.040;2023-04-02T12:58:51;99922.84;;;7.87;70.43
20696;BME280;10507;52.754;13.040;2023-04-02T13:01:54;99944.03;;;7.52;72.42
20696;BME280;10507;52.754;13.040;2023-04-02T13:05:31;99908.78;;;7.31;71.92
20696;BME280;10507;52.754;13.040;2023-04-02T13:08:26;100103.13;;;7.58;73.04
20696;BME280;10507;52.754;13.040;2023-04-02T13:11:19;100211.91;;;8.01;72.05
20696;BME280;10507;52.754;13.040;2023-04-02T13:14:16;100035.59;;;7.81;71.83
20696;BME280;10507;52.754;13.040;2023-04-02T13:17:37;99946.97;;;7.82;69.75
20696;BME280;10507;52.754;13.040;2023-04-02T13:20:33;100060.81;;;8.09;70.97
20696;BME280;10507;52.754;13.040;2023-04-02T13:23:34;99898.50;;;7.95;69.71
20696;BME280;10507;52.754;13.040;2023-04-02T13:26:27;99833.72;;;7.80;69.95
20696;BME280;10507;52.754;13.040;2023-04-02T13:29:23;99893.63;;;7.50;71.50
20696;BME280;10507;52.754;13.040;2023-04-02T13:32:16;99905.88;;;7.36;72.34
20696;BME280;10507;52.754;13.040;2023-04-02T13:35:08;99819.47;;;7.11;71.10
20696;BME280;10507;52.754;13.040;2023-04-02T13:38:01;99854.50;;;7.00;71.42
20696;BME280;10507;52.754;13.040;2023-04-02T13:40:56;100147.00;;;7.27;73.97
20696;BME280;10507;52.754;13.040;2023-04-02T13:43:49;100021.38;;;7.27;71.64
20696;BME280;10507;52.754;13.040;2023-04-02T13:46:41;100017.66;;;7.11;72.06
20696;BME280;10507;52.754;13.040;2023-04-02T13:49:33;99987.25;;;6.99;71.81
20696;BME280;10507;52.754;13.040;2023-04-02T13:52:25;99982.09;;;6.96;72.06
20696;BME280;10507;52.754;13.040;2023-04-02T13:55:21;100340.06;;;7.46;73.30
20696;BME280;10507;52.754;13.040;2023-04-02T13:58:14;100082.88;;;7.37;71.66
20696;BME280;10507;52.754;13.040;2023-04-02T14:01:06;100018.47;;;7.13;72.61